Time;durP1;ratioP1;P1;durP2;ratioP2;P2;SDS_P1;SDS_P2;PMS_P1;PMS_P2;Temp;Humidity;BMP_temperature;BMP_pressure;BME280_temperature;BME280_humidity;BME280_pressure;Samples;Min_cycle;Max_cycle;Signal;HPM_P1;HPM_P2
2022/06/11 00:02:15;;;;;;;10.68;8.00;;;;;;;;;;4522902;77;28577;-87
2022/06/11 00:08:18;;;;;;;12.53;8.53;;;;;;;;;;4501667;77;28530;-87
2022/06/11 00:14:22;;;;;;;11.70;9.50;;;;;;;;;;4507974;78;28511;-88
2022/06/11 00:20:27;;;;;;;12.50;10.05;;;;;;;;;;4499562;77;28493;-85
2022/06/11 00:26:28;;;;;;;12.13;10.13;;;;;;;;;;4529221;77;28483;-87
2022/06/11 00:32:30;;;;;;;11.83;8.35;;;;;;;;;;4480710;77;28536;-88
2022/06/11 00:38:31;;;;;;;11.57;8.10;;;;;;;;;;4489003;77;28538;-86
2022/06/11 00:44:33;;;;;;;11.83;7.60;;;;;;;;;;4503370;77;28523;-86
2022/06/11 00:50:47;;;;;;;10.82;7.97;;;;;;;;;;4502056;77;28531;-87
2022/06/11 00:56:52;;;;;;;10.30;7.67;;;;;;;;;;4510399;77;28539;-87
2022/06/11 01:02:54;;;;;;;11.35;8.03;;;;;;;;;;4519657;77;44001;-86
2022/06/11 01:09:05;;;;;;;11.10;7.70;;;;;;;;;;4504397;77;28925;-87
2022/06/11 01:15:10;;;;;;;9.83;8.33;;;;;;;;;;4519363;77;28546;-86
2022/06/11 01:21:50;;;;;;;10.20;8.25;;;;;;;;;;4494912;77;28573;-88
2022/06/11 01:28:03;;;;;;;12.15;8.65;;;;;;;;;;4362036;80;28552;-86
2022/06/11 01:34:23;;;;;;;12.45;7.35;;;;;;;;;;4390297;78;28513;-87
2022/06/11 01:40:53;;;;;;;11.15;7.87;;;;;;;;;;4439044;78;28563;-87
2022/06/11 01:46:56;;;;;;;12.73;9.05;;;;;;;;;;4430909;78;28605;-85
2022/06/11 01:53:31;;;;;;;11.15;8.98;;;;;;;;;;4393314;78;28503;-86
2022/06/11 01:59:52;;;;;;;11.33;7.85;;;;;;;;;;4406604;78;28480;-88
2022/06/11 02:06:06;;;;;;;10.65;7.87;;;;;;;;;;4412348;80;28538;-88
2022/06/11 02:12:11;;;;;;;10.45;8.30;;;;;;;;;;4453662;78;28514;-89
2022/06/11 02:18:16;;;;;;;11.78;8.65;;;;;;;;;;4446785;77;28457;-87
2022/06/11 02:24:27;;;;;;;9.90;8.43;;;;;;;;;;4406325;79;28459;-87
2022/06/11 02:30:30;;;;;;;14.05;9.33;;;;;;;;;;4406745;80;28501;-86
2022/06/11 02:36:35;;;;;;;11.95;9.08;;;;;;;;;;4363928;80;28502;-84
2022/06/11 02:42:36;;;;;;;14.35;8.63;;;;;;;;;;4353646;80;28468;-82
2022/06/11 02:48:38;;;;;;;10.93;8.40;;;;;;;;;;4435935;78;28507;-82
2022/06/11 02:54:39;;;;;;;12.78;8.35;;;;;;;;;;4449602;78;28559;-81
2022/06/11 03:00:44;;;;;;;10.20;8.45;;;;;;;;;;4360514;80;28539;-81
2022/06/11 03:06:45;;;;;;;12.47;9.68;;;;;;;;;;4405510;78;28541;-83
2022/06/11 03:12:47;;;;;;;10.68;9.23;;;;;;;;;;4364724;80;28529;-83
2022/06/11 03:18:48;;;;;;;10.32;8.60;;;;;;;;;;4339948;80;28512;-84
2022/06/11 03:24:50;;;;;;;11.60;8.43;;;;;;;;;;4444990;78;28508;-84
2022/06/11 03:30:51;;;;;;;10.05;8.53;;;;;;;;;;4377292;80;28506;-83
2022/06/11 03:36:53;;;;;;;11.40;8.75;;;;;;;;;;4370114;80;28554;-84
2022/06/11 03:42:54;;;;;;;11.12;8.90;;;;;;;;;;4365081;80;28501;-84
2022/06/11 03:48:56;;;;;;;12.28;9.40;;;;;;;;;;4392387;80;28578;-83
2022/06/11 03:54:57;;;;;;;12.40;9.35;;;;;;;;;;4364028;80;28950;-84
2022/06/11 04:01:16;;;;;;;11.68;9.00;;;;;;;;;;4339954;80;28547;-83
2022/06/11 04:07:17;;;;;;;11.28;8.55;;;;;;;;;;4436964;78;28529;-84
2022/06/11 04:13:21;;;;;;;11.28;8.53;;;;;;;;;;4443116;78;28465;-84
2022/06/11 04:19:25;;;;;;;11.10;7.62;;;;;;;;;;4435992;78;28563;-84
2022/06/11 04:25:26;;;;;;;9.85;7.53;;;;;;;;;;4436889;78;28528;-83
2022/06/11 04:31:29;;;;;;;7.92;6.22;;;;;;;;;;4469572;78;28648;-84
2022/06/11 04:37:32;;;;;;;6.40;5.70;;;;;;;;;;4487930;78;28523;-84
2022/06/11 04:43:34;;;;;;;10.20;6.05;;;;;;;;;;4453992;78;28568;-85
2022/06/11 04:49:36;;;;;;;9.15;6.03;;;;;;;;;;4459744;78;28457;-85
2022/06/11 04:55:37;;;;;;;8.18;5.75;;;;;;;;;;4435538;78;28498;-84
2022/06/11 05:01:41;;;;;;;8.08;5.05;;;;;;;;;;4431032;78;28536;-82
2022/06/11 05:07:43;;;;;;;6.80;5.03;;;;;;;;;;4428731;78;28481;-82
2022/06/11 05:13:44;;;;;;;6.10;5.28;;;;;;;;;;4442667;78;28537;-83
2022/06/11 05:19:45;;;;;;;6.78;4.80;;;;;;;;;;4431584;78;28496;-83
2022/06/11 05:25:47;;;;;;;6.15;5.40;;;;;;;;;;4430838;78;28484;-83
2022/06/11 05:31:48;;;;;;;5.45;4.80;;;;;;;;;;4424569;78;28510;-86
2022/06/11 05:37:51;;;;;;;6.10;5.00;;;;;;;;;;4395069;80;28468;-88
2022/06/11 05:43:52;;;;;;;5.15;4.40;;;;;;;;;;4402542;78;28538;-83
2022/06/11 05:49:58;;;;;;;6.30;4.62;;;;;;;;;;4430145;78;28461;-83
2022/06/11 05:56:01;;;;;;;8.27;4.70;;;;;;;;;;4404604;78;28524;-81
2022/06/11 06:16:49;;;;;;;4.47;3.10;;;;;;;28.05;46.09;99646.09;4481706;77;59487;-77
2022/06/11 06:22:50;;;;;;;4.97;3.20;;;;;;;27.83;46.93;99650.77;4467214;78;28522;-77
2022/06/11 06:28:56;;;;;;;4.05;2.90;;;;;;;28.50;45.19;99656.53;4459565;78;28517;-80
2022/06/11 06:34:57;;;;;;;3.65;3.05;;;;;;;28.86;44.40;99654.89;4491875;78;28493;-83
2022/06/11 06:41:00;;;;;;;6.22;3.22;;;;;;;29.18;43.88;99660.17;4474556;78;28493;-79
2022/06/11 06:47:01;;;;;;;4.08;3.60;;;;;;;28.83;43.33;99658.31;4521572;77;28525;-80
2022/06/11 06:53:03;;;;;;;3.33;3.02;;;;;;;30.16;41.16;99653.70;4458329;78;28495;-83
2022/06/11 06:59:05;;;;;;;3.27;2.75;;;;;;;29.93;40.81;99652.55;4546480;77;28509;-83
2022/06/11 07:05:09;;;;;;;3.65;2.83;;;;;;;30.37;40.62;99642.23;4536913;76;28526;-85
2022/06/11 07:11:10;;;;;;;3.72;2.50;;;;;;;30.01;38.34;99650.23;4549318;76;28858;-82
2022/06/11 07:17:14;;;;;;;2.98;2.42;;;;;;;29.68;38.38;99646.99;4524844;77;28512;-83
2022/06/11 07:23:39;;;;;;;2.90;2.58;;;;;;;29.81;38.79;99655.55;4526819;77;28525;-81
2022/06/11 07:29:57;;;;;;;;;;;;;;;29.68;39.05;99659.45;4513358;77;28524;-80
2022/06/11 07:35:59;;;;;;;4.50;2.60;;;;;;;29.73;38.68;99660.06;4527757;77;20201;-82
2022/06/11 07:42:00;;;;;;;3.47;2.45;;;;;;;29.39;38.63;99663.44;4547543;77;28612;-81
2022/06/11 07:48:04;;;;;;;2.77;2.58;;;;;;;29.34;38.96;99664.47;4526416;77;28535;-80
2022/06/11 07:54:09;;;;;;;6.55;4.12;;;;;;;29.35;39.60;99669.45;4540758;77;28518;-81
2022/06/11 08:00:16;;;;;;;2.65;2.40;;;;;;;29.68;38.53;99665.00;4529440;77;28530;-78
2022/06/11 08:06:17;;;;;;;3.22;2.85;;;;;;;29.83;38.92;99661.55;4534672;77;28545;-77
2022/06/11 08:12:19;;;;;;;3.00;2.20;;;;;;;28.62;40.80;99669.62;4553638;76;28485;-83
2022/06/11 08:18:25;;;;;;;2.95;2.30;;;;;;;28.39;38.77;99676.88;4532033;76;28473;-77
2022/06/11 08:24:27;;;;;;;2.50;2.20;;;;;;;28.69;36.96;99667.69;4544720;76;28575;-77
2022/06/11 08:30:31;;;;;;;2.37;1.90;;;;;;;29.17;36.61;99657.17;4543594;76;28482;-78
2022/06/11 08:36:38;;;;;;;3.65;2.25;;;;;;;29.26;35.60;99652.91;4561182;76;28518;-79
2022/06/11 08:42:45;;;;;;;3.27;2.95;;;;;;;29.59;35.02;99649.88;4552885;76;28512;-78
2022/06/11 08:49:07;;;;;;;2.45;2.00;;;;;;;30.07;33.82;99653.02;4567022;76;28516;-78
2022/06/11 08:55:11;;;;;;;2.72;2.05;;;;;;;29.91;35.01;99652.32;4450666;78;28479;-77
2022/06/11 09:01:33;;;;;;;3.25;2.10;;;;;;;29.47;35.59;99654.82;4501236;78;28526;-78
2022/06/11 09:07:56;;;;;;;4.97;1.75;;;;;;;30.22;34.55;99631.29;4537346;77;28545;-76
2022/06/11 09:14:28;;;;;;;2.30;2.00;;;;;;;30.35;33.88;99630.09;4479848;78;28514;-77
2022/06/11 09:20:41;;;;;;;2.33;1.98;;;;;;;29.38;35.12;99638.29;4544114;77;28454;-77
2022/06/11 09:26:50;;;;;;;3.40;2.00;;;;;;;29.94;34.21;99618.95;4594809;76;28552;-78
2022/06/11 09:33:06;;;;;;;2.62;1.70;;;;;;;29.73;33.67;99621.27;4532164;77;28549;-78
2022/06/11 09:39:18;;;;;;;2.10;1.60;;;;;;;29.69;32.00;99623.11;4505629;78;28465;-77
2022/06/11 09:45:31;;;;;;;1.60;1.50;;;;;;;29.85;33.11;99600.25;4510726;78;28461;-78
2022/06/11 09:51:59;;;;;;;1.57;1.47;;;;;;;29.45;33.54;99608.67;4561518;77;28594;-78
2022/06/11 09:58:21;;;;;;;2.87;1.40;;;;;;;29.61;32.40;99603.25;4504227;78;28533;-78
2022/06/11 10:04:28;;;;;;;1.37;1.27;;;;;;;29.34;33.12;99595.84;4575811;76;28539;-78
2022/06/11 10:10:53;;;;;;;2.72;1.35;;;;;;;30.04;32.21;99589.94;4551424;77;28534;-78
2022/06/11 10:17:21;;;;;;;2.92;1.20;;;;;;;29.08;33.40;99597.76;4305272;81;28502;-78
2022/06/11 10:23:57;;;;;;;1.75;1.10;;;;;;;29.11;32.58;99599.04;4310907;82;28540;-78
2022/06/11 10:30:33;;;;;;;1.12;1.05;;;;;;;29.40;32.21;99591.67;4378263;80;28554;-78
2022/06/11 10:36:40;;;;;;;2.05;1.10;;;;;;;29.49;32.03;99583.30;4232782;82;28519;-77
2022/06/11 10:43:05;;;;;;;3.08;1.20;;;;;;;29.48;31.65;99596.92;4396181;80;28520;-77
2022/06/11 10:49:17;;;;;;;2.17;1.45;;;;;;;30.07;31.30;99581.53;4390431;80;28580;-78
2022/06/11 10:55:33;;;;;;;1.32;1.20;;;;;;;30.14;31.83;99578.39;4387977;80;28492;-78
2022/06/11 11:01:46;;;;;;;2.70;1.30;;;;;;;29.48;32.87;99575.55;4396915;80;28488;-78
2022/06/11 11:08:02;;;;;;;1.67;1.17;;;;;;;29.30;33.37;99578.28;4389530;80;28559;-77
2022/06/11 11:14:21;;;;;;;3.37;1.10;;;;;;;29.91;31.50;99573.33;4409263;79;28559;-78
2022/06/11 11:20:39;;;;;;;1.92;1.20;;;;;;;30.44;30.06;99568.92;4391621;79;28532;-77
2022/06/11 11:26:46;;;;;;;7.25;1.60;;;;;;;30.32;30.70;99571.97;4390629;79;28493;-78
2022/06/11 11:32:48;;;;;;;2.60;1.85;;;;;;;30.82;30.67;99566.80;4403255;79;28520;-77
2022/06/11 11:39:00;;;;;;;2.17;1.70;;;;;;;29.80;32.88;99578.30;4427720;79;28482;-83
2022/06/11 11:45:19;;;;;;;3.45;1.70;;;;;;;30.71;32.20;99566.52;4382701;79;28494;-81
2022/06/11 11:51:40;;;;;;;3.33;1.87;;;;;;;30.39;31.09;99570.58;4404800;79;28546;-80
2022/06/11 11:57:44;;;;;;;2.50;2.00;;;;;;;30.25;31.15;99564.03;4379779;79;28460;-81
2022/06/11 12:03:52;;;;;;;1.62;1.52;;;;;;;30.67;31.63;99560.88;4406473;79;28506;-81
2022/06/11 12:09:58;;;;;;;2.25;1.60;;;;;;;30.91;30.15;99555.55;4380624;79;28535;-82
2022/06/11 12:16:07;;;;;;;2.70;1.80;;;;;;;31.12;30.21;99558.05;4406035;79;28510;-79
2022/06/11 12:22:32;;;;;;;4.33;2.10;;;;;;;31.01;30.70;99544.70;4411464;79;28501;-85
2022/06/11 12:29:07;;;;;;;2.00;1.80;;;;;;;30.95;31.12;99552.27;4401276;80;28507;-81
2022/06/11 12:35:16;;;;;;;2.05;1.87;;;;;;;30.96;31.24;99555.27;4393533;79;28535;-81
2022/06/11 12:41:48;;;;;;;2.47;2.00;;;;;;;31.49;30.60;99556.98;4335435;81;28505;-83
2022/06/11 12:48:10;;;;;;;1.87;1.70;;;;;;;31.28;29.89;99560.28;4397673;79;28483;-82
2022/06/11 12:54:22;;;;;;;3.83;1.90;;;;;;;31.54;29.11;99567.23;4410486;79;28519;-82
2022/06/11 13:01:18;;;;;;;3.30;2.00;;;;;;;31.69;29.94;99560.03;4397973;79;28499;-81
2022/06/11 13:07:34;;;;;;;2.62;1.85;;;;;;;30.66;31.98;99561.22;4415965;79;28495;-85
2022/06/11 13:13:56;;;;;;;2.35;1.92;;;;;;;31.67;29.94;99554.64;4361831;80;28531;-78
2022/06/11 13:20:23;;;;;;;2.22;1.98;;;;;;;31.33;29.94;99543.93;4386298;80;28531;-81
2022/06/11 13:26:51;;;;;;;1.90;1.80;;;;;;;31.29;29.75;99544.41;4358808;81;28593;-89
2022/06/11 13:33:06;;;;;;;2.12;1.90;;;;;;;31.02;29.98;99539.97;4338450;80;28538;-82
2022/06/11 13:39:30;;;;;;;2.75;1.80;;;;;;;31.78;29.97;99539.01;4405305;80;28501;-83
2022/06/11 13:45:50;;;;;;;2.12;1.92;;;;;;;31.74;29.25;99542.27;4351677;80;28597;-82
2022/06/11 13:52:03;;;;;;;2.10;1.90;;;;;;;32.20;28.74;99541.69;4316846;80;28549;-83
2022/06/11 13:58:40;;;;;;;2.35;2.15;;;;;;;31.66;30.03;99553.81;4366379;80;28487;-84
2022/06/11 14:04:48;;;;;;;3.45;2.20;;;;;;;31.36;30.08;99542.41;4367654;80;28524;-82
2022/06/11 14:10:53;;;;;;;3.55;2.00;;;;;;;32.54;28.79;99530.88;4364594;80;28511;-83
2022/06/11 14:16:54;;;;;;;2.40;2.20;;;;;;;31.98;29.79;99528.73;4374278;80;28484;-83
2022/06/11 14:23:05;;;;;;;2.40;2.20;;;;;;;31.52;29.97;99532.06;4371685;80;28570;-84
2022/06/11 14:29:06;;;;;;;2.15;1.82;;;;;;;31.23;29.36;99518.88;4364235;80;28461;-83
2022/06/11 14:35:24;;;;;;;2.17;1.98;;;;;;;32.14;28.41;99515.36;4370893;80;28569;-82
2022/06/11 14:41:36;;;;;;;1.80;1.70;;;;;;;31.01;31.15;99510.00;4376587;80;28511;-82
2022/06/11 14:47:59;;;;;;;5.10;1.92;;;;;;;31.57;29.36;99501.23;4339804;80;28598;-80
2022/06/11 14:54:18;;;;;;;2.20;1.70;;;;;;;31.22;29.51;99506.13;4376377;80;28507;-84
2022/06/11 15:01:14;;;;;;;2.77;1.50;;;;;;;31.71;29.15;99499.36;4358005;80;28464;-84
2022/06/11 15:07:33;;;;;;;2.50;1.60;;;;;;;31.34;28.95;99489.98;4369618;80;28518;-82
2022/06/11 15:13:53;;;;;;;3.83;1.30;;;;;;;31.20;28.63;99485.47;4245258;81;28535;-91
2022/06/11 15:20:01;;;;;;;1.52;1.20;;;;;;;31.24;28.10;99482.21;4253990;82;28882;-88
2022/06/11 15:26:08;;;;;;;2.92;1.50;;;;;;;30.84;28.09;99472.31;4259335;82;28543;-90
2022/06/11 15:32:24;;;;;;;1.87;1.30;;;;;;;30.98;28.39;99476.02;4363165;81;28514;-88
2022/06/11 15:38:49;;;;;;;5.70;1.60;;;;;;;31.21;27.53;99472.59;4427147;79;28507;-87
2022/06/11 15:44:50;;;;;;;2.92;1.72;;;;;;;31.38;27.49;99479.75;4406918;79;28593;-90
2022/06/11 15:51:15;;;;;;;3.62;1.35;;;;;;;30.73;28.70;99492.87;4414053;79;28609;-90
2022/06/11 15:57:29;;;;;;;2.70;1.57;;;;;;;31.12;28.46;99479.73;4402485;79;28490;-89
2022/06/11 16:03:43;;;;;;;2.00;1.47;;;;;;;30.92;28.71;99480.83;4394158;79;28461;-85
2022/06/11 16:09:44;;;;;;;1.85;1.37;;;;;;;30.69;29.30;99485.02;4403469;80;28518;-90
2022/06/11 16:15:49;;;;;;;1.62;1.30;;;;;;;31.84;27.97;99477.80;4391881;80;28491;-88
2022/06/11 16:22:05;;;;;;;3.10;1.55;;;;;;;31.62;28.33;99480.70;4372084;80;28444;-85
2022/06/11 16:28:20;;;;;;;2.83;1.40;;;;;;;31.08;28.58;99480.22;4362277;80;28460;-88
2022/06/11 16:34:23;;;;;;;3.00;1.30;;;;;;;31.35;28.13;99484.66;4368850;80;28533;-88
2022/06/11 16:40:34;;;;;;;2.15;1.15;;;;;;;31.63;27.93;99477.31;4356309;80;28541;-84
2022/06/11 16:46:35;;;;;;;7.25;3.37;;;;;;;32.35;27.26;99476.63;4366807;80;28531;-81
2022/06/11 16:59:07;;;;;;;3.15;1.30;;;;;;;32.85;27.23;99476.72;4378407;80;28484;-83
2022/06/11 17:05:08;;;;;;;3.12;1.20;;;;;;;33.62;26.52;99483.70;4369821;80;28523;-82
2022/06/11 17:11:11;;;;;;;2.20;1.30;;;;;;;34.62;24.84;99480.28;4371007;80;28593;-82
2022/06/11 17:17:18;;;;;;;3.95;1.25;;;;;;;33.63;26.17;99485.30;4325897;80;28526;-80
2022/06/11 17:23:43;;;;;;;2.80;1.20;;;;;;;33.30;26.82;99489.59;4311836;81;28482;-81
2022/06/11 17:29:45;;;;;;;1.22;0.90;;;;;;;33.23;26.76;99492.27;4287782;81;28500;-80
2022/06/11 17:35:50;;;;;;;2.95;1.07;;;;;;;32.73;27.30;99502.76;4302904;81;28516;-81
2022/06/11 17:41:55;;;;;;;3.67;1.70;;;;;;;33.19;26.88;99492.81;4282238;83;28788;-80
2022/06/11 17:47:59;;;;;;;3.08;1.50;;;;;;;32.59;27.38;99501.91;4158658;85;28511;-80
2022/06/11 17:54:05;;;;;;;3.42;1.60;;;;;;;32.19;27.79;99501.75;4282946;83;28508;-80
2022/06/11 18:00:13;;;;;;;5.22;1.62;;;;;;;32.05;28.04;99508.61;4300810;81;28501;-81
2022/06/11 18:06:14;;;;;;;2.55;1.70;;;;;;;32.23;28.15;99503.42;4287215;81;28488;-79
2022/06/11 18:12:16;;;;;;;4.05;1.80;;;;;;;32.11;28.37;99510.51;4193572;83;28521;-81
2022/06/11 18:18:37;;;;;;;3.85;2.17;;;;;;;32.09;28.37;99515.64;4254266;82;28550;-80
2022/06/11 18:30:55;;;;;;;2.65;1.92;;;;;;;31.27;29.42;99539.23;4403967;79;28517;-81
2022/06/11 18:36:58;;;;;;;4.22;1.70;;;;;;;31.11;29.82;99540.59;4425034;79;28595;-80
2022/06/11 18:43:02;;;;;;;3.42;1.70;;;;;;;31.09;30.08;99554.04;4390845;79;28454;-79
2022/06/11 18:49:05;;;;;;;3.20;2.10;;;;;;;30.35;31.02;99553.00;4371463;80;28531;-81
2022/06/11 18:55:08;;;;;;;4.60;2.45;;;;;;;29.63;32.37;99578.80;4398927;79;28580;-81
2022/06/11 19:01:12;;;;;;;4.92;2.30;;;;;;;29.18;33.10;99581.27;4410383;79;28579;-81
2022/06/11 19:07:16;;;;;;;5.78;2.45;;;;;;;29.27;33.00;99587.28;4316358;81;28514;-79
2022/06/11 19:13:18;;;;;;;4.90;2.67;;;;;;;28.99;33.54;99594.84;4391209;79;28555;-84
2022/06/11 19:19:22;;;;;;;4.03;2.65;;;;;;;28.74;34.26;99603.05;4405067;79;28593;-84
2022/06/11 19:25:25;;;;;;;3.27;2.30;;;;;;;28.51;34.75;99601.45;4406802;79;28558;-82
2022/06/11 19:31:27;;;;;;;7.05;3.92;;;;;;;28.89;34.18;99613.48;4409484;79;28495;-79
2022/06/11 19:37:29;;;;;;;6.50;3.27;;;;;;;28.63;34.65;99620.06;4393926;79;28459;-83
2022/06/11 19:43:31;;;;;;;5.58;3.90;;;;;;;28.32;35.37;99609.42;4387365;79;28523;-83
2022/06/11 19:49:33;;;;;;;6.45;3.58;;;;;;;28.34;35.35;99611.30;4402838;79;28501;-78
2022/06/11 19:55:37;;;;;;;7.58;3.22;;;;;;;28.37;35.31;99611.41;4389311;79;28544;-81
2022/06/11 20:01:42;;;;;;;5.37;3.67;;;;;;;28.22;35.62;99614.23;4405168;79;28531;-79
2022/06/11 20:07:44;;;;;;;5.72;2.85;;;;;;;28.04;36.18;99606.58;4388585;79;28498;-79
2022/06/11 20:13:48;;;;;;;5.42;3.55;;;;;;;27.97;36.45;99604.35;4400500;79;28549;-79
2022/06/11 20:19:53;;;;;;;5.15;3.30;;;;;;;28.12;36.18;99617.36;4391561;79;28484;-81
2022/06/11 20:25:56;;;;;;;7.00;3.85;;;;;;;28.60;35.33;99619.37;4358789;80;28511;-80
2022/06/11 20:31:58;;;;;;;4.80;3.12;;;;;;;28.01;36.42;99616.11;4255793;82;28583;-82
2022/06/11 20:38:01;;;;;;;5.33;3.10;;;;;;;27.93;36.90;99617.23;4247265;82;28542;-83
2022/06/11 20:44:04;;;;;;;10.38;2.90;;;;;;;27.84;38.10;99606.21;4361011;80;28500;-85
2022/06/11 20:50:07;;;;;;;5.53;2.90;;;;;;;27.55;39.47;99609.23;4369723;80;28491;-83
2022/06/11 20:56:09;;;;;;;9.78;3.30;;;;;;;27.36;39.24;99619.24;4388099;80;28527;-82
2022/06/11 21:02:17;;;;;;;5.47;2.85;;;;;;;27.04;41.28;99616.52;4336860;81;28530;-82
2022/06/11 21:14:38;;;;;;;5.40;3.60;;;;;;;26.84;41.25;99623.73;4298961;81;28575;-82
2022/06/11 21:20:42;;;;;;;5.30;3.33;;;;;;;26.75;41.62;99628.44;4308457;81;28480;-83
2022/06/11 21:26:43;;;;;;;5.72;3.00;;;;;;;26.55;42.13;99634.88;4299072;81;28546;-84
2022/06/11 21:32:45;;;;;;;8.88;3.40;;;;;;;26.18;43.10;99633.74;4314454;81;28529;-84
2022/06/11 21:38:46;;;;;;;6.37;3.50;;;;;;;25.99;44.56;99628.53;4316642;81;28524;-83
2022/06/11 21:44:51;;;;;;;8.58;3.92;;;;;;;25.68;44.68;99632.17;4308968;81;28509;-83
2022/06/11 21:50:53;;;;;;;7.22;3.65;;;;;;;25.57;44.50;99624.77;4318944;81;28514;-82
2022/06/11 21:56:55;;;;;;;6.60;3.77;;;;;;;25.71;44.63;99618.34;4317350;81;28530;-82
2022/06/11 22:02:56;;;;;;;7.20;3.95;;;;;;;25.30;45.35;99634.81;4305245;81;28573;-82
2022/06/11 22:08:57;;;;;;;10.58;4.03;;;;;;;25.18;46.50;99628.51;4332628;81;28514;-83
2022/06/11 22:14:59;;;;;;;7.62;3.58;;;;;;;25.12;46.56;99623.45;4298417;81;28520;-83
2022/06/11 22:21:01;;;;;;;6.17;3.77;;;;;;;24.94;47.57;99630.80;4221590;84;28542;-84
2022/06/11 22:27:03;;;;;;;6.42;4.25;;;;;;;24.96;47.99;99633.48;4312322;82;28485;-82
2022/06/11 22:33:05;;;;;;;7.97;3.67;;;;;;;25.01;47.24;99632.55;4319629;82;28510;-81
2022/06/11 22:39:07;;;;;;;6.42;3.65;;;;;;;24.81;48.31;99630.55;4290517;82;28454;-82
2022/06/11 22:45:23;;;;;;;7.92;3.37;;;;;;;24.76;48.41;99629.26;4312027;82;28557;-82
2022/06/11 22:51:26;;;;;;;6.50;3.75;;;;;;;24.75;48.40;99628.46;4319640;82;28513;-82
2022/06/11 22:57:28;;;;;;;5.60;3.92;;;;;;;24.50;49.57;99632.63;4299942;82;28504;-82
2022/06/11 23:03:31;;;;;;;8.83;3.77;;;;;;;24.27;48.96;99627.64;4310357;81;28512;-83
2022/06/11 23:09:33;;;;;;;6.08;3.85;;;;;;;23.88;50.46;99617.45;4302535;82;28514;-81
2022/06/11 23:15:34;;;;;;;6.08;3.67;;;;;;;23.75;50.92;99622.66;4345798;79;28550;-82
2022/06/11 23:21:36;;;;;;;6.72;3.72;;;;;;;23.83;51.32;99629.91;4383475;79;28522;-81
2022/06/11 23:27:37;;;;;;;9.65;5.03;;;;;;;23.68;51.50;99625.78;4401313;79;28521;-82
2022/06/11 23:33:39;;;;;;;6.50;4.33;;;;;;;23.71;51.94;99623.57;4408641;79;28499;-80
2022/06/11 23:39:42;;;;;;;7.30;4.12;;;;;;;23.21;53.26;99630.50;4390774;80;28534;-81
2022/06/11 23:45:47;;;;;;;6.10;4.15;;;;;;;23.15;53.23;99631.69;4384474;79;28542;-81
2022/06/11 23:51:51;;;;;;;6.80;4.17;;;;;;;22.95;54.73;99639.97;4387431;79;28547;-80
2022/06/11 23:57:53;;;;;;;9.70;4.55;;;;;;;23.10;54.54;99635.33;4393550;79;28535;-81
